Time;durP1;ratioP1;P1;durP2;ratioP2;P2;SDS_P1;SDS_P2;PMS_P1;PMS_P2;Temp;Humidity;BMP_temperature;BMP_pressure;BME280_temperature;BME280_humidity;BME280_pressure;Samples;Min_cycle;Max_cycle;Signal;HPM_P1;HPM_P2
2021/12/09 00:03:06;;;;;;;83.28;24.90;;;;;;;;;;5031913;28;20021;-84
2021/12/09 00:05:32;;;;;;;119.13;31.08;;;;;;;;;;5033851;28;20116;-84
2021/12/09 00:08:04;;;;;;;82.30;25.90;;;;;;;;;;4997514;28;20128;-84
2021/12/09 00:10:30;;;;;;;101.85;28.88;;;;;;;;;;5033260;28;20029;-85
2021/12/09 00:12:57;;;;;;;91.07;26.85;;;;;;;;;;5016946;28;20046;-85
2021/12/09 00:15:23;;;;;;;79.63;27.17;;;;;;;;;;5033612;28;20026;-84
2021/12/09 00:20:53;;;;;;;111.68;30.35;;;;;;;;;;5026630;28;20048;-84
2021/12/09 00:23:21;;;;;;;111.10;35.20;;;;;;;;;;5034634;28;20024;-84
2021/12/09 00:25:47;;;;;;;94.90;31.77;;;;;;;;;;5033537;28;20071;-84
2021/12/09 00:28:14;;;;;;;77.78;28.13;;;;;;;;;;5033470;28;20032;-84
2021/12/09 00:31:05;;;;;;;69.93;25.65;;;;;;;;;;5034479;28;20025;-84
2021/12/09 00:33:31;;;;;;;96.38;31.55;;;;;;;;;;5025400;28;20017;-84
2021/12/09 00:39:03;;;;;;;86.10;30.02;;;;;;;;;;5034472;28;20495;-84
2021/12/09 00:41:30;;;;;;;96.90;33.83;;;;;;;;;;5032837;28;20079;-84
2021/12/09 00:43:56;;;;;;;102.75;34.30;;;;;;;;;;5032701;28;20021;-84
2021/12/09 00:46:22;;;;;;;91.50;33.75;;;;;;;;;;5032704;28;20044;-84
2021/12/09 00:48:50;;;;;;;99.22;36.42;;;;;;;;;;5032501;28;20041;-84
2021/12/09 00:51:16;;;;;;;108.95;37.65;;;;;;;;;;5033995;28;20021;-84
2021/12/09 00:53:43;;;;;;;113.35;36.33;;;;;;;;;;5032566;28;20036;-84
2021/12/09 00:56:10;;;;;;;118.13;38.35;;;;;;;;;;5031998;28;20024;-83
2021/12/09 00:58:37;;;;;;;118.55;39.38;;;;;;;;;;5032474;28;20116;-84
2021/12/09 01:01:04;;;;;;;132.88;41.70;;;;;;;;;;5012877;28;20030;-84
2021/12/09 01:03:34;;;;;;;136.98;44.25;;;;;;;;;;5021808;28;20033;-83
2021/12/09 01:06:00;;;;;;;97.25;36.22;;;;;;;;;;5014439;28;20041;-84
2021/12/09 01:08:27;;;;;;;107.32;35.08;;;;;;;;;;5013006;28;20097;-85
2021/12/09 01:11:02;;;;;;;92.00;32.90;;;;;;;;;;5030407;28;20027;-85
2021/12/09 01:13:44;;;;;;;81.45;27.77;;;;;;;;;;5032184;28;20500;-84
2021/12/09 01:16:10;;;;;;;79.15;27.17;;;;;;;;;;5032235;28;20036;-84
2021/12/09 01:18:38;;;;;;;84.43;27.05;;;;;;;;;;5026147;28;20481;-84
2021/12/09 01:21:05;;;;;;;84.75;27.70;;;;;;;;;;5031040;28;20361;-85
2021/12/09 01:23:32;;;;;;;94.50;31.27;;;;;;;;;;5031926;28;20032;-85
2021/12/09 01:26:06;;;;;;;90.88;30.95;;;;;;;;;;5020548;28;20052;-85
2021/12/09 01:28:45;;;;;;;79.05;28.15;;;;;;;;;;5032111;28;20026;-86
2021/12/09 01:31:24;;;;;;;101.72;31.55;;;;;;;;;;5031878;28;20535;-83
2021/12/09 01:33:52;;;;;;;86.55;30.42;;;;;;;;;;5028096;28;20464;-87
2021/12/09 01:36:22;;;;;;;72.55;29.70;;;;;;;;;;5032152;28;20029;-86
2021/12/09 01:38:48;;;;;;;97.22;33.00;;;;;;;;;;5030236;28;20080;-87
2021/12/09 01:41:15;;;;;;;98.65;33.95;;;;;;;;;;5032912;28;20036;-87
2021/12/09 01:43:41;;;;;;;93.28;35.17;;;;;;;;;;5027989;28;20032;-87
2021/12/09 01:46:19;;;;;;;105.53;41.10;;;;;;;;;;5031890;28;20440;-86
2021/12/09 01:48:46;;;;;;;130.88;47.67;;;;;;;;;;5032177;28;20484;-89
2021/12/09 01:51:13;;;;;;;117.68;46.17;;;;;;;;;;5028734;28;20025;-85
2021/12/09 01:53:40;;;;;;;222.52;54.55;;;;;;;;;;5030856;28;20033;-84
2021/12/09 01:56:11;;;;;;;120.65;44.45;;;;;;;;;;5029425;28;20057;-85
2021/12/09 01:58:37;;;;;;;114.95;45.33;;;;;;;;;;5030630;28;20064;-85
2021/12/09 02:01:05;;;;;;;119.55;44.58;;;;;;;;;;5021895;28;20033;-85
2021/12/09 02:03:33;;;;;;;218.80;53.10;;;;;;;;;;5030913;28;20040;-84
2021/12/09 02:06:00;;;;;;;116.13;42.75;;;;;;;;;;4682375;28;9999690;-85
2021/12/09 02:08:33;;;;;;;81.60;35.03;;;;;;;;;;5028355;28;20049;-85
2021/12/09 02:10:59;;;;;;;84.68;30.67;;;;;;;;;;5026370;28;20029;-85
2021/12/09 02:13:26;;;;;;;119.50;37.40;;;;;;;;;;5018271;28;20041;-85
2021/12/09 02:16:03;;;;;;;82.65;32.20;;;;;;;;;;4991121;28;20501;-86
2021/12/09 02:18:30;;;;;;;72.60;29.30;;;;;;;;;;5003480;28;20397;-86
2021/12/09 02:21:16;;;;;;;83.55;29.00;;;;;;;;;;5015509;28;20034;-86
2021/12/09 02:23:50;;;;;;;86.07;29.58;;;;;;;;;;5015912;28;20065;-85
2021/12/09 02:26:19;;;;;;;86.53;29.65;;;;;;;;;;5015758;28;20128;-86
2021/12/09 02:28:46;;;;;;;83.35;29.63;;;;;;;;;;5017127;28;20034;-85
2021/12/09 02:31:17;;;;;;;74.22;28.73;;;;;;;;;;5015285;28;20033;-86
2021/12/09 02:33:44;;;;;;;71.63;28.92;;;;;;;;;;5015326;28;20022;-86
2021/12/09 02:36:20;;;;;;;93.75;34.70;;;;;;;;;;5008479;28;20026;-85
2021/12/09 02:38:48;;;;;;;99.63;37.58;;;;;;;;;;5001756;28;20026;-85
2021/12/09 02:41:23;;;;;;;87.07;35.22;;;;;;;;;;5008871;28;20018;-86
2021/12/09 02:43:51;;;;;;;69.57;30.23;;;;;;;;;;4990884;28;20045;-85
2021/12/09 02:46:18;;;;;;;83.30;32.45;;;;;;;;;;5013065;28;20030;-85
2021/12/09 02:48:45;;;;;;;72.13;28.02;;;;;;;;;;5011901;28;20543;-86
2021/12/09 02:51:30;;;;;;;94.10;32.88;;;;;;;;;;4995699;28;20073;-86
2021/12/09 02:53:57;;;;;;;78.55;29.15;;;;;;;;;;4998710;28;20461;-86
2021/12/09 02:56:23;;;;;;;86.22;29.65;;;;;;;;;;5014953;28;20102;-85
2021/12/09 02:58:54;;;;;;;105.32;33.33;;;;;;;;;;5014656;28;20036;-85
2021/12/09 03:01:22;;;;;;;97.82;32.97;;;;;;;;;;4993638;28;20497;-86
2021/12/09 03:03:56;;;;;;;106.05;34.55;;;;;;;;;;4983010;28;20033;-87
2021/12/09 03:06:27;;;;;;;80.55;31.27;;;;;;;;;;5015500;28;20072;-86
2021/12/09 03:09:08;;;;;;;87.13;29.83;;;;;;;;;;5014481;28;20026;-86
2021/12/09 03:11:34;;;;;;;84.20;33.08;;;;;;;;;;5013367;28;20433;-85
2021/12/09 03:14:01;;;;;;;92.03;29.70;;;;;;;;;;5024681;28;20042;-85
2021/12/09 03:16:33;;;;;;;64.38;24.30;;;;;;;;;;5034587;28;20477;-85
2021/12/09 03:19:03;;;;;;;70.90;27.40;;;;;;;;;;5032018;28;20026;-85
2021/12/09 03:21:39;;;;;;;80.43;27.80;;;;;;;;;;5031185;28;20044;-85
2021/12/09 03:24:07;;;;;;;88.50;30.58;;;;;;;;;;5033621;28;20037;-84
2021/12/09 03:26:36;;;;;;;107.85;34.05;;;;;;;;;;5032623;28;20033;-86
2021/12/09 03:29:05;;;;;;;74.47;29.10;;;;;;;;;;5025566;28;20029;-87
2021/12/09 03:31:31;;;;;;;86.15;31.58;;;;;;;;;;5035279;28;20026;-88
2021/12/09 03:34:10;;;;;;;103.05;34.20;;;;;;;;;;5033574;28;20029;-85
2021/12/09 03:36:36;;;;;;;77.30;30.27;;;;;;;;;;5037090;28;20087;-88
2021/12/09 03:39:06;;;;;;;107.57;35.33;;;;;;;;;;5036341;28;20025;-86
2021/12/09 03:41:32;;;;;;;80.30;33.30;;;;;;;;;;5034871;28;20099;-89
2021/12/09 03:43:59;;;;;;;124.00;39.08;;;;;;;;;;5036036;28;20041;-87
2021/12/09 03:46:25;;;;;;;118.93;40.03;;;;;;;;;;5034528;28;20049;-86
2021/12/09 03:49:04;;;;;;;113.63;37.45;;;;;;;;;;5030014;28;20032;-86
2021/12/09 03:51:30;;;;;;;106.55;36.45;;;;;;;;;;5034458;28;20056;-88
2021/12/09 03:53:57;;;;;;;115.35;39.10;;;;;;;;;;5034130;28;20036;-86
2021/12/09 03:56:24;;;;;;;116.43;40.70;;;;;;;;;;5034475;28;20109;-87
2021/12/09 03:58:51;;;;;;;117.13;38.90;;;;;;;;;;5034081;28;20033;-82
2021/12/09 04:01:19;;;;;;;149.27;43.42;;;;;;;;;;5033742;28;20389;-82
2021/12/09 04:03:46;;;;;;;170.88;46.42;;;;;;;;;;5033613;28;20041;-82
2021/12/09 04:06:12;;;;;;;130.98;40.47;;;;;;;;;;5033842;28;20037;-82
2021/12/09 06:03:24;;;;;;;87.30;30.35;;;;;;;;;;5062072;28;20068;-83
2021/12/09 06:05:53;;;;;;;93.70;33.65;;;;;;;;;;5034123;28;20056;-83
2021/12/09 06:08:20;;;;;;;81.28;32.15;;;;;;;;;;5034961;28;20029;-82
2021/12/09 06:10:48;;;;;;;78.35;30.00;;;;;;;;;;5035351;28;20060;-83
2021/12/09 06:13:15;;;;;;;84.10;30.90;;;;;;;;;;5039742;28;20032;-83
2021/12/09 06:15:42;;;;;;;95.57;33.78;;;;;;;;;;5050697;28;20033;-83
2021/12/09 06:18:08;;;;;;;92.13;33.55;;;;;;;;;;5050690;28;20128;-83
2021/12/09 06:20:35;;;;;;;89.80;32.20;;;;;;;;;;5033278;28;21637;-82
2021/12/09 06:23:01;;;;;;;103.40;34.85;;;;;;;;;;5046381;28;20024;-82
2021/12/09 06:26:02;;;;;;;79.70;33.05;;;;;;;;;;5034867;28;20037;-83
2021/12/09 06:28:28;;;;;;;97.15;37.15;;;;;;;;;;5050476;28;20036;-83
2021/12/09 06:30:54;;;;;;;98.55;35.95;;;;;;;;;;5043388;28;20041;-83
2021/12/09 06:33:36;;;;;;;93.15;35.85;;;;;;;;;;5023613;28;20373;-83
2021/12/09 06:36:02;;;;;;;84.47;33.05;;;;;;;;;;5014942;28;20093;-82
2021/12/09 06:38:29;;;;;;;86.13;35.13;;;;;;;;;;5014802;28;20057;-83
2021/12/09 06:41:12;;;;;;;90.13;34.92;;;;;;;;;;5033626;28;20091;-82
2021/12/09 06:43:40;;;;;;;94.53;37.13;;;;;;;;;;5017845;28;20040;-83
2021/12/09 06:46:07;;;;;;;91.93;36.45;;;;;;;;;;5034444;28;20033;-82
2021/12/09 06:48:39;;;;;;;100.50;39.40;;;;;;;;;;5033896;28;20040;-82
2021/12/09 06:51:06;;;;;;;96.18;38.47;;;;;;;;;;5050530;28;20120;-82
2021/12/09 06:56:27;;;;;;;90.38;35.72;;;;;;;;;;5047714;28;20476;-83
2021/12/09 06:59:05;;;;;;;83.72;34.08;;;;;;;;;;5034045;28;20037;-82
2021/12/09 07:01:31;;;;;;;84.72;34.33;;;;;;;;;;5033230;28;20603;-83
2021/12/09 07:03:57;;;;;;;91.53;36.10;;;;;;;;;;5055060;28;20102;-83
2021/12/09 07:06:26;;;;;;;88.25;35.55;;;;;;;;;;5054151;28;20044;-82
2021/12/09 07:08:54;;;;;;;87.30;35.25;;;;;;;;;;5024164;28;20041;-82
2021/12/09 07:11:33;;;;;;;85.20;33.70;;;;;;;;;;5017261;28;20037;-82
2021/12/09 07:13:59;;;;;;;82.15;32.95;;;;;;;;;;5017659;28;20488;-82
2021/12/09 07:16:31;;;;;;;87.00;33.65;;;;;;;;;;5017861;28;20124;-82
2021/12/09 07:19:00;;;;;;;84.30;33.35;;;;;;;;;;5018193;28;20523;-82
2021/12/09 07:21:26;;;;;;;79.90;35.50;;;;;;;;;;5017911;28;20047;-82
2021/12/09 07:24:00;;;;;;;92.65;34.95;;;;;;;;;;5034109;28;20083;-82
2021/12/09 07:26:28;;;;;;;80.13;35.75;;;;;;;;;;5030274;28;20038;-83
2021/12/09 07:28:55;;;;;;;85.47;35.67;;;;;;;;;;5009438;28;20504;-83
2021/12/09 07:31:24;;;;;;;85.38;34.88;;;;;;;;;;5017674;28;20033;-84
2021/12/09 07:33:50;;;;;;;72.03;31.85;;;;;;;;;;5017569;28;20029;-82
2021/12/09 07:36:22;;;;;;;78.35;31.27;;;;;;;;;;5017633;28;20041;-83
2021/12/09 07:38:48;;;;;;;71.22;31.55;;;;;;;;;;5017837;28;20444;-83
2021/12/09 07:41:18;;;;;;;60.10;27.52;;;;;;;;;;5017756;28;20033;-83
2021/12/09 07:43:45;;;;;;;55.35;23.33;;;;;;;;;;5017776;28;20033;-83
2021/12/09 07:46:11;;;;;;;61.08;24.60;;;;;;;;;;5014073;28;20033;-84
2021/12/09 07:48:51;;;;;;;52.47;20.35;;;;;;;;;;5033882;28;20431;-83
2021/12/09 07:51:17;;;;;;;50.65;19.13;;;;;;;;;;5019003;28;20025;-83
2021/12/09 07:53:44;;;;;;;65.32;21.75;;;;;;;;;;5014895;28;20037;-83
2021/12/09 07:56:10;;;;;;;56.75;20.15;;;;;;;;;;5015397;28;20481;-83
2021/12/09 07:58:37;;;;;;;53.63;20.60;;;;;;;;;;5014932;28;20128;-83
2021/12/09 08:01:18;;;;;;;45.05;18.67;;;;;;;;;;5017257;28;20128;-83
2021/12/09 08:03:54;;;;;;;57.30;18.92;;;;;;;;;;5017307;28;20381;-83
2021/12/09 08:06:20;;;;;;;74.55;32.60;;;;;;;;;;5016975;28;20065;-84
2021/12/09 08:08:46;;;;;;;91.13;40.42;;;;;;;;;;5018009;28;20073;-83
2021/12/09 08:11:18;;;;;;;116.40;50.13;;;;;;;;;;5030682;28;20041;-83
2021/12/09 08:13:44;;;;;;;122.43;52.00;;;;;;;;;;5016796;28;20029;-83
2021/12/09 08:16:11;;;;;;;105.47;48.63;;;;;;;;;;5013925;28;20109;-84
2021/12/09 08:18:53;;;;;;;122.10;51.42;;;;;;;;;;5019953;28;20056;-83
2021/12/09 08:21:21;;;;;;;129.70;57.08;;;;;;;;;;5014695;28;20040;-85
2021/12/09 08:23:48;;;;;;;142.13;60.35;;;;;;;;;;5016446;28;20037;-84
2021/12/09 08:26:15;;;;;;;127.05;56.97;;;;;;;;;;5005971;28;20039;-84
2021/12/09 08:28:42;;;;;;;119.03;55.60;;;;;;;;;;5010576;28;20038;-84
2021/12/09 08:31:08;;;;;;;136.60;57.10;;;;;;;;;;5023136;28;20365;-84
2021/12/09 08:33:44;;;;;;;131.77;57.33;;;;;;;;;;5011823;28;20397;-84
2021/12/09 08:36:10;;;;;;;136.90;57.00;;;;;;;;;;5013397;28;20025;-84
2021/12/09 08:38:37;;;;;;;132.93;57.67;;;;;;;;;;5015298;28;20037;-84
2021/12/09 08:41:06;;;;;;;132.27;54.00;;;;;;;;;;5016918;28;20038;-84
2021/12/09 08:43:32;;;;;;;121.88;52.50;;;;;;;;;;5030306;28;20046;-84
2021/12/09 08:46:17;;;;;;;126.30;53.88;;;;;;;;;;5032186;28;20038;-84
2021/12/09 08:48:44;;;;;;;119.60;51.58;;;;;;;;;;5038181;28;20064;-84
2021/12/09 08:51:20;;;;;;;118.63;49.80;;;;;;;;;;5004802;28;20038;-84
2021/12/09 08:53:46;;;;;;;125.07;54.50;;;;;;;;;;5013570;28;20029;-83
2021/12/09 08:56:13;;;;;;;110.28;49.83;;;;;;;;;;5017644;28;20033;-84
2021/12/09 08:58:39;;;;;;;116.20;49.80;;;;;;;;;;5015890;28;20041;-83
2021/12/09 09:01:11;;;;;;;110.93;47.60;;;;;;;;;;5019782;28;20180;-83
2021/12/09 09:03:38;;;;;;;117.30;49.83;;;;;;;;;;5014627;28;20045;-83
2021/12/09 09:06:11;;;;;;;130.35;53.85;;;;;;;;;;5010836;28;20038;-83
2021/12/09 09:08:37;;;;;;;139.82;54.20;;;;;;;;;;5008139;28;20037;-83
2021/12/09 09:11:13;;;;;;;137.18;57.20;;;;;;;;;;5010637;28;20033;-83
2021/12/09 09:13:41;;;;;;;134.13;57.00;;;;;;;;;;5015639;28;20393;-83
2021/12/09 09:16:08;;;;;;;147.63;61.90;;;;;;;;;;5015458;28;20029;-83
2021/12/09 09:18:34;;;;;;;145.55;62.35;;;;;;;;;;5004132;28;20038;-83
2021/12/09 09:21:03;;;;;;;146.23;60.25;;;;;;;;;;5009844;28;20048;-83
2021/12/09 09:23:29;;;;;;;152.82;61.05;;;;;;;;;;5015918;28;20041;-83
2021/12/09 09:25:55;;;;;;;153.82;64.30;;;;;;;;;;5015187;28;20025;-83
2021/12/09 09:28:31;;;;;;;144.18;59.53;;;;;;;;;;5013994;28;20476;-83
2021/12/09 09:30:59;;;;;;;136.65;58.40;;;;;;;;;;5008329;28;20033;-83
2021/12/09 09:33:28;;;;;;;136.73;55.63;;;;;;;;;;5015648;28;20078;-83
2021/12/09 09:35:59;;;;;;;155.02;64.13;;;;;;;;;;5015488;28;20030;-83
2021/12/09 09:38:25;;;;;;;182.82;69.90;;;;;;;;;;5012060;28;20053;-83
2021/12/09 09:41:18;;;;;;;163.95;63.88;;;;;;;;;;5021919;28;20041;-83
2021/12/09 09:46:30;;;;;;;168.50;65.95;;;;;;;;;;5033077;28;20026;-83
2021/12/09 09:48:58;;;;;;;169.40;64.60;;;;;;;;;;4995775;28;20445;-82
2021/12/09 09:51:31;;;;;;;164.10;63.03;;;;;;;;;;4995754;28;20030;-83
2021/12/09 09:53:58;;;;;;;137.32;55.25;;;;;;;;;;5013393;28;20037;-82
2021/12/09 09:56:27;;;;;;;132.38;51.13;;;;;;;;;;5013304;28;20053;-82
2021/12/09 09:58:55;;;;;;;123.78;49.15;;;;;;;;;;5015396;28;20063;-82
2021/12/09 10:01:24;;;;;;;127.82;50.75;;;;;;;;;;5014556;28;20052;-83
2021/12/09 10:03:57;;;;;;;121.20;50.53;;;;;;;;;;5023761;28;20041;-83
2021/12/09 10:06:24;;;;;;;132.15;52.70;;;;;;;;;;5035063;28;20531;-82
2021/12/09 10:09:17;;;;;;;140.75;52.08;;;;;;;;;;5020271;28;20041;-82
2021/12/09 10:11:45;;;;;;;131.45;49.60;;;;;;;;;;4978835;28;20030;-83
2021/12/09 10:14:16;;;;;;;124.43;51.40;;;;;;;;;;5010109;28;20025;-86
2021/12/09 10:16:50;;;;;;;129.15;50.17;;;;;;;;;;5011879;28;20122;-82
2021/12/09 10:19:19;;;;;;;128.13;49.97;;;;;;;;;;5011934;28;20071;-86
2021/12/09 10:21:48;;;;;;;149.02;54.55;;;;;;;;;;5014598;28;20072;-84
2021/12/09 10:24:16;;;;;;;132.10;46.58;;;;;;;;;;5020556;28;20033;-83
2021/12/09 10:26:46;;;;;;;125.32;47.63;;;;;;;;;;5012999;28;20030;-83
2021/12/09 10:29:30;;;;;;;130.90;50.28;;;;;;;;;;5014459;28;20096;-83
2021/12/09 10:32:01;;;;;;;131.40;50.95;;;;;;;;;;5017882;28;20469;-84
2021/12/09 10:34:36;;;;;;;144.25;55.40;;;;;;;;;;4998217;28;20128;-84
2021/12/09 10:37:05;;;;;;;139.27;54.50;;;;;;;;;;5016643;28;20037;-83
2021/12/09 10:39:40;;;;;;;135.20;53.30;;;;;;;;;;5018693;28;20041;-83
2021/12/09 10:42:12;;;;;;;129.77;52.65;;;;;;;;;;5018549;28;20087;-83
2021/12/09 10:45:09;;;;;;;155.60;54.28;;;;;;;;;;5018710;28;20029;-84
2021/12/09 10:47:49;;;;;;;123.22;48.55;;;;;;;;;;5006689;28;20508;-83
2021/12/09 10:55:50;;;;;;;127.50;46.50;;;;;;;;;;5031243;28;20439;-83
2021/12/09 10:58:18;;;;;;;124.15;49.75;;;;;;;;;;5020124;28;20507;-84
2021/12/09 11:00:52;;;;;;;121.88;45.50;;;;;;;;;;5015804;28;20038;-84
2021/12/09 11:03:23;;;;;;;127.05;47.78;;;;;;;;;;5033839;28;20057;-82
2021/12/09 11:05:54;;;;;;;122.93;46.63;;;;;;;;;;5010852;28;20037;-82
2021/12/09 11:08:22;;;;;;;120.13;47.47;;;;;;;;;;5013033;28;20392;-82
2021/12/09 11:10:49;;;;;;;122.85;48.97;;;;;;;;;;5015357;28;20484;-82
2021/12/09 11:13:18;;;;;;;112.15;44.17;;;;;;;;;;5014477;28;20036;-82
2021/12/09 11:15:46;;;;;;;130.73;46.22;;;;;;;;;;5031734;28;20068;-82
2021/12/09 11:18:48;;;;;;;119.30;46.38;;;;;;;;;;5014540;28;20493;-82
2021/12/09 11:21:18;;;;;;;117.57;44.97;;;;;;;;;;4929987;29;20031;-82
2021/12/09 11:23:55;;;;;;;124.60;48.60;;;;;;;;;;5020379;28;20037;-82
2021/12/09 11:26:36;;;;;;;127.50;46.55;;;;;;;;;;5010565;28;20084;-82
2021/12/09 11:29:07;;;;;;;122.90;45.30;;;;;;;;;;5030163;28;20037;-83
2021/12/09 11:31:49;;;;;;;113.03;42.65;;;;;;;;;;5015205;28;20036;-83
2021/12/09 11:34:19;;;;;;;123.75;45.65;;;;;;;;;;5012079;28;20037;-83
2021/12/09 11:36:48;;;;;;;112.78;46.35;;;;;;;;;;5011384;28;20033;-83
2021/12/09 11:39:19;;;;;;;123.05;47.58;;;;;;;;;;5016466;28;20446;-82
2021/12/09 11:41:47;;;;;;;120.28;46.80;;;;;;;;;;5017795;28;20038;-82
2021/12/09 11:44:14;;;;;;;119.53;47.50;;;;;;;;;;5034809;28;20033;-82
2021/12/09 11:46:42;;;;;;;131.65;49.92;;;;;;;;;;5012396;28;20041;-83
2021/12/09 11:49:10;;;;;;;132.13;53.88;;;;;;;;;;5012684;28;20041;-83
2021/12/09 11:51:37;;;;;;;118.10;51.17;;;;;;;;;;5016077;28;20033;-83
2021/12/09 11:54:05;;;;;;;132.15;51.22;;;;;;;;;;5001242;28;20046;-83
2021/12/09 11:56:42;;;;;;;157.90;62.33;;;;;;;;;;5015263;28;20557;-84
2021/12/09 12:11:36;;;;;;;223.88;86.32;;;;;;;;;;5033129;28;20033;-81
2021/12/09 12:14:17;;;;;;;282.42;110.53;;;;;;;;;;4943904;28;20553;-82
2021/12/09 12:16:58;;;;;;;251.38;99.40;;;;;;;;;;5026836;28;20124;-82
2021/12/09 12:19:44;;;;;;;224.73;90.03;;;;;;;;;;5018908;28;20045;-81
2021/12/09 12:22:43;;;;;;;226.02;86.75;;;;;;;;;;5028450;28;20053;-81
2021/12/09 12:25:24;;;;;;;222.80;86.75;;;;;;;;;;5011237;28;20128;-81
2021/12/09 12:28:07;;;;;;;222.13;79.03;;;;;;;;;;4997803;28;20753;-81
2021/12/09 12:31:39;;;;;;;204.82;75.93;;;;;;;;;;5007398;28;20492;-81
2021/12/09 12:34:39;;;;;;;206.48;72.65;;;;;;;;;;4664926;28;10000089;-81
2021/12/09 12:42:17;;;;;;;155.27;51.95;;;;;;;;;;5033725;28;20388;-81
2021/12/09 12:47:56;;;;;;;195.50;69.03;;;;;;;;;;5010443;28;20366;-80
2021/12/09 12:50:23;;;;;;;196.07;70.95;;;;;;;;;;5018530;28;20041;-81
2021/12/09 12:53:17;;;;;;;178.98;65.82;;;;;;;;;;5013175;28;20041;-81
2021/12/09 12:58:40;;;;;;;188.25;70.45;;;;;;;;;;5032646;28;20385;-82
2021/12/09 13:01:19;;;;;;;170.80;58.88;;;;;;;;;;5012668;28;20113;-82
2021/12/09 13:03:48;;;;;;;138.95;55.38;;;;;;;;;;5013086;28;20041;-81
2021/12/09 13:06:38;;;;;;;135.57;48.75;;;;;;;;;;5012712;28;20033;-82
2021/12/09 13:09:28;;;;;;;124.93;46.70;;;;;;;;;;5013310;28;20076;-81
2021/12/09 13:12:10;;;;;;;140.88;48.08;;;;;;;;;;5035461;28;20079;-81
2021/12/09 13:14:58;;;;;;;153.52;51.22;;;;;;;;;;5017121;28;20124;-82
2021/12/09 13:17:31;;;;;;;148.30;54.33;;;;;;;;;;5008478;28;20033;-83
2021/12/09 13:20:06;;;;;;;154.18;55.08;;;;;;;;;;5014936;28;20045;-82
2021/12/09 13:22:40;;;;;;;151.98;55.17;;;;;;;;;;5033098;28;20484;-82
2021/12/09 13:25:29;;;;;;;136.68;52.78;;;;;;;;;;5015193;28;20033;-82
2021/12/09 13:28:00;;;;;;;158.90;55.53;;;;;;;;;;5015582;28;20396;-82
2021/12/09 13:33:35;;;;;;;161.13;62.38;;;;;;;;;;5025769;28;20488;-82
2021/12/09 13:55:00;;;;;;;120.93;43.97;;;;;;;;;;5029908;28;20515;-83
2021/12/09 13:57:32;;;;;;;118.50;41.20;;;;;;;;;;5013106;28;20026;-84
2021/12/09 13:59:58;;;;;;;122.20;43.55;;;;;;;;;;5026487;28;20042;-83
2021/12/09 14:02:26;;;;;;;125.45;44.45;;;;;;;;;;5006034;28;20080;-83
2021/12/09 14:04:55;;;;;;;113.63;42.95;;;;;;;;;;5010177;28;20077;-83
2021/12/09 14:07:41;;;;;;;122.47;44.72;;;;;;;;;;5011023;28;20053;-83
2021/12/09 14:10:11;;;;;;;113.38;39.05;;;;;;;;;;5023396;28;20124;-82
2021/12/09 14:12:46;;;;;;;125.90;43.33;;;;;;;;;;5021136;28;20366;-83
2021/12/09 14:15:18;;;;;;;138.63;47.90;;;;;;;;;;5042633;28;20420;-82
2021/12/09 14:17:45;;;;;;;137.93;45.83;;;;;;;;;;5014517;28;20088;-83
2021/12/09 14:20:19;;;;;;;135.93;46.25;;;;;;;;;;5013975;28;20045;-83
2021/12/09 14:22:48;;;;;;;138.25;46.15;;;;;;;;;;5014183;28;20029;-83
2021/12/09 14:25:28;;;;;;;140.70;48.15;;;;;;;;;;5014324;28;20052;-83
2021/12/09 14:27:55;;;;;;;127.55;46.97;;;;;;;;;;5014246;28;20120;-83
2021/12/09 14:30:26;;;;;;;120.28;45.03;;;;;;;;;;5013839;28;20094;-83
2021/12/09 14:32:56;;;;;;;137.82;44.53;;;;;;;;;;5014530;28;20060;-83
2021/12/09 14:35:29;;;;;;;126.63;45.53;;;;;;;;;;5015887;28;20021;-83
2021/12/09 14:37:55;;;;;;;133.63;46.53;;;;;;;;;;5022574;28;20090;-83
2021/12/09 14:40:26;;;;;;;119.35;42.72;;;;;;;;;;5017097;28;20037;-83
2021/12/09 14:43:08;;;;;;;131.02;44.25;;;;;;;;;;5006651;28;20052;-83
2021/12/09 14:45:53;;;;;;;117.72;42.95;;;;;;;;;;5008242;28;20091;-83
2021/12/09 14:48:35;;;;;;;138.90;47.92;;;;;;;;;;5011481;28;20485;-86
2021/12/09 14:51:18;;;;;;;120.25;43.55;;;;;;;;;;5011694;28;20049;-86
2021/12/09 14:53:47;;;;;;;133.77;45.75;;;;;;;;;;5008878;28;20033;-86
2021/12/09 14:56:27;;;;;;;127.72;47.15;;;;;;;;;;5030910;28;20030;-86
2021/12/09 14:59:14;;;;;;;134.23;47.40;;;;;;;;;;5011443;28;20068;-86
2021/12/09 15:01:40;;;;;;;141.55;48.58;;;;;;;;;;5007774;28;20088;-86
2021/12/09 15:04:19;;;;;;;140.63;49.88;;;;;;;;;;5011600;28;20055;-86
2021/12/09 15:06:55;;;;;;;145.02;48.95;;;;;;;;;;5011835;28;20053;-85
2021/12/09 15:09:27;;;;;;;131.98;50.17;;;;;;;;;;5031344;28;20477;-86
2021/12/09 15:11:54;;;;;;;148.02;52.50;;;;;;;;;;5010672;28;20041;-86
2021/12/09 15:14:20;;;;;;;129.55;47.05;;;;;;;;;;5007518;28;20030;-86
2021/12/09 15:16:50;;;;;;;133.77;48.60;;;;;;;;;;5013855;28;20036;-86
2021/12/09 15:19:20;;;;;;;120.82;43.47;;;;;;;;;;5010753;28;20124;-85
2021/12/09 15:22:06;;;;;;;124.22;44.78;;;;;;;;;;5012972;28;20065;-84
2021/12/09 15:24:32;;;;;;;126.70;45.05;;;;;;;;;;5016506;28;20033;-84
2021/12/09 15:26:59;;;;;;;134.05;45.70;;;;;;;;;;5018571;28;20125;-84
2021/12/09 15:29:25;;;;;;;136.68;46.60;;;;;;;;;;5004797;28;20037;-84
2021/12/09 15:31:56;;;;;;;128.75;44.00;;;;;;;;;;5005444;28;20026;-84
2021/12/09 15:34:25;;;;;;;135.90;45.88;;;;;;;;;;5013330;28;20126;-83
2021/12/09 15:37:04;;;;;;;151.90;51.63;;;;;;;;;;5016026;28;20029;-84
2021/12/09 15:39:32;;;;;;;150.23;51.50;;;;;;;;;;5014058;28;20030;-83
2021/12/09 15:42:10;;;;;;;155.45;55.00;;;;;;;;;;5010677;28;20396;-84
2021/12/09 15:44:47;;;;;;;137.38;53.60;;;;;;;;;;5011172;28;20373;-83
2021/12/09 15:47:25;;;;;;;165.25;60.40;;;;;;;;;;5014110;28;20045;-83
2021/12/09 15:50:00;;;;;;;158.48;58.35;;;;;;;;;;4997337;28;20034;-83
2021/12/09 15:52:31;;;;;;;161.80;59.35;;;;;;;;;;5016776;28;20093;-83
2021/12/09 15:55:04;;;;;;;171.15;62.50;;;;;;;;;;5015913;28;20065;-83
2021/12/09 15:57:35;;;;;;;172.43;61.00;;;;;;;;;;5013183;28;20403;-82
2021/12/09 16:00:03;;;;;;;161.10;60.58;;;;;;;;;;5018135;28;20041;-83
2021/12/09 16:02:32;;;;;;;158.95;57.85;;;;;;;;;;5012459;28;20050;-83
2021/12/09 16:04:59;;;;;;;139.45;55.35;;;;;;;;;;5015884;28;20054;-83
2021/12/09 16:07:26;;;;;;;170.00;64.28;;;;;;;;;;5012791;28;20030;-84
2021/12/09 16:09:53;;;;;;;170.60;61.00;;;;;;;;;;5004928;28;20445;-83
2021/12/09 16:12:25;;;;;;;169.00;66.00;;;;;;;;;;5016405;28;20484;-84
2021/12/09 16:14:58;;;;;;;171.50;65.72;;;;;;;;;;5015870;28;20068;-85
2021/12/09 16:17:29;;;;;;;152.20;60.10;;;;;;;;;;5014001;28;20033;-85
2021/12/09 16:19:56;;;;;;;173.82;65.00;;;;;;;;;;5021024;28;20033;-85
2021/12/09 16:24:52;;;;;;;164.10;64.68;;;;;;;;;;5033793;28;20037;-84
2021/12/09 16:27:19;;;;;;;177.77;71.40;;;;;;;;;;5017872;28;20052;-85
2021/12/09 16:29:46;;;;;;;212.45;85.68;;;;;;;;;;5014122;28;20061;-84
2021/12/09 16:32:17;;;;;;;236.60;91.97;;;;;;;;;;5016739;28;20188;-85
2021/12/09 16:34:53;;;;;;;236.75;95.68;;;;;;;;;;5019018;28;20088;-85
2021/12/09 16:37:19;;;;;;;220.43;88.47;;;;;;;;;;5013899;28;20063;-85
2021/12/09 16:39:46;;;;;;;201.85;83.18;;;;;;;;;;5015445;28;20029;-85
2021/12/09 16:42:12;;;;;;;211.45;79.50;;;;;;;;;;5015115;28;20268;-85
2021/12/09 16:44:39;;;;;;;210.80;78.70;;;;;;;;;;5015035;28;20037;-84
2021/12/09 16:47:05;;;;;;;195.73;77.60;;;;;;;;;;5014950;28;20029;-84
2021/12/09 16:49:36;;;;;;;196.15;71.70;;;;;;;;;;5012596;28;20089;-84
2021/12/09 16:52:02;;;;;;;183.85;70.35;;;;;;;;;;4667414;28;10001267;-84
2021/12/09 16:54:34;;;;;;;180.05;69.18;;;;;;;;;;4667866;28;9999917;-84
2021/12/09 16:57:21;;;;;;;158.43;65.90;;;;;;;;;;4668587;28;10000013;-85
2021/12/09 16:59:51;;;;;;;168.43;65.82;;;;;;;;;;5014334;28;20064;-86
2021/12/09 17:07:29;;;;;;;172.75;68.90;;;;;;;;;;5051786;28;20067;-86
2021/12/09 17:09:55;;;;;;;190.25;71.32;;;;;;;;;;5071801;28;20587;-85
2021/12/09 17:12:25;;;;;;;164.15;65.80;;;;;;;;;;5054529;28;20043;-85
2021/12/09 17:14:52;;;;;;;166.25;65.25;;;;;;;;;;5055565;28;20028;-85
2021/12/09 17:17:30;;;;;;;169.43;65.97;;;;;;;;;;5055516;28;20041;-84
2021/12/09 17:19:57;;;;;;;171.85;68.55;;;;;;;;;;5067352;28;20037;-85
2021/12/09 17:22:27;;;;;;;176.10;66.47;;;;;;;;;;5047572;28;20687;-85
2021/12/09 17:24:58;;;;;;;178.57;68.03;;;;;;;;;;5041465;28;20032;-84
2021/12/09 17:27:30;;;;;;;169.80;70.05;;;;;;;;;;5071900;28;20067;-84
2021/12/09 17:30:05;;;;;;;185.25;70.85;;;;;;;;;;5053682;28;20056;-84
2021/12/09 17:32:32;;;;;;;188.10;70.75;;;;;;;;;;5040938;28;20506;-84
2021/12/09 17:34:58;;;;;;;176.55;67.82;;;;;;;;;;5054013;28;20399;-84
2021/12/09 17:37:24;;;;;;;176.93;66.28;;;;;;;;;;5053193;28;20033;-84
2021/12/09 17:39:51;;;;;;;167.48;64.63;;;;;;;;;;5054969;28;20043;-84